createdAt,value
2018-05-14T00:00:33.685Z,12.46
2018-05-14T00:03:07.521Z,12.47
2018-05-14T00:05:41.414Z,12.50
2018-05-14T00:08:15.167Z,12.55
2018-05-14T00:10:48.988Z,12.55
2018-05-14T00:13:23.265Z,12.57
2018-05-14T00:15:56.982Z,12.51
2018-05-14T00:18:31.803Z,12.55
2018-05-14T00:21:05.593Z,12.49
2018-05-14T00:23:39.372Z,12.49
2018-05-14T00:26:13.082Z,12.50
2018-05-14T00:28:46.918Z,12.51
2018-05-14T00:31:20.717Z,12.62
2018-05-14T00:33:54.618Z,12.55
2018-05-14T00:36:29.317Z,12.54
2018-05-14T00:39:03.191Z,12.60
2018-05-14T00:41:37.923Z,12.60
2018-05-14T00:44:11.693Z,12.63
2018-05-14T00:46:45.372Z,12.64
2018-05-14T00:49:19.157Z,12.73
2018-05-14T00:51:52.825Z,12.70
2018-05-14T00:54:26.617Z,12.67
2018-05-14T00:57:00.354Z,12.77
2018-05-14T00:59:34.229Z,12.70
2018-05-14T01:02:07.794Z,12.71
2018-05-14T01:04:42.512Z,12.73
2018-05-14T01:07:16.361Z,12.71
2018-05-14T01:09:50.129Z,12.67
2018-05-14T01:12:23.889Z,12.78
2018-05-14T01:14:57.656Z,12.72
2018-05-14T01:17:31.315Z,12.75
2018-05-14T01:20:05.177Z,12.72
2018-05-14T01:22:38.889Z,12.68
2018-05-14T01:25:12.596Z,12.67
2018-05-14T01:27:46.195Z,12.67
2018-05-14T01:30:19.933Z,12.74
2018-05-14T01:32:53.652Z,12.67
2018-05-14T01:35:27.365Z,12.70
2018-05-14T01:38:01.145Z,12.73
2018-05-14T01:40:35.026Z,12.73
2018-05-14T01:43:08.750Z,12.76
2018-05-14T01:45:42.545Z,12.74
2018-05-14T01:48:16.370Z,12.84
2018-05-14T01:50:50.147Z,12.80
2018-05-14T01:53:23.830Z,12.75
2018-05-14T01:55:57.620Z,12.76
2018-05-14T01:58:31.337Z,12.78
2018-05-14T02:01:05.045Z,12.76
2018-05-14T02:03:38.768Z,12.79
2018-05-14T02:06:12.481Z,12.83
2018-05-14T02:08:46.382Z,12.81
2018-05-14T02:11:20.193Z,12.81
2018-05-14T02:13:53.962Z,12.87
2018-05-14T02:16:27.748Z,12.90
2018-05-14T02:19:01.494Z,12.88
2018-05-14T02:21:35.231Z,12.90
2018-05-14T02:24:08.868Z,12.92
2018-05-14T02:26:42.497Z,12.97
2018-05-14T02:29:16.428Z,13.01
2018-05-14T02:31:50.146Z,12.96
2018-05-14T02:34:23.789Z,12.98
2018-05-14T02:40:11.592Z,13.09
2018-05-14T02:42:45.299Z,13.05
2018-05-14T02:45:19.056Z,13.03
2018-05-14T02:47:52.770Z,13.15
2018-05-14T02:50:26.551Z,13.15
2018-05-14T02:53:00.422Z,13.12
2018-05-14T02:55:34.313Z,13.11
2018-05-14T02:58:08.007Z,13.19
2018-05-14T03:00:41.714Z,13.12
2018-05-14T03:03:15.329Z,13.15
2018-05-14T03:05:49.170Z,13.13
2018-05-14T03:08:22.953Z,13.12
2018-05-14T03:10:56.706Z,13.15
2018-05-14T03:13:30.342Z,13.16
2018-05-14T03:16:04.044Z,13.12
2018-05-14T03:18:37.745Z,13.19
2018-05-14T03:21:11.381Z,13.23
2018-05-14T03:23:45.025Z,13.20
2018-05-14T03:26:18.805Z,13.23
2018-05-14T03:28:52.506Z,13.30
2018-05-14T03:31:26.276Z,13.24
2018-05-14T03:34:00.038Z,13.22
2018-05-14T03:36:33.822Z,13.22
2018-05-14T03:39:07.389Z,13.26
2018-05-14T03:41:41.114Z,13.30
2018-05-14T03:44:14.785Z,13.29
2018-05-14T03:46:48.623Z,13.27
2018-05-14T03:49:22.279Z,13.27
2018-05-14T03:51:55.973Z,13.28
2018-05-14T03:54:29.858Z,13.29
2018-05-14T03:57:18.244Z,13.34
2018-05-14T04:00:03.677Z,13.39
2018-05-14T04:02:49.325Z,13.38
2018-05-14T04:08:16.968Z,13.36
2018-05-14T04:10:50.971Z,13.36
2018-05-14T04:13:24.455Z,13.36
2018-05-14T04:15:58.014Z,13.41
2018-05-14T04:18:31.597Z,13.44
2018-05-14T04:21:05.303Z,13.34
2018-05-14T04:23:39.506Z,13.41
2018-05-14T04:26:13.248Z,13.40
2018-05-14T04:28:46.791Z,13.45
2018-05-14T04:31:20.355Z,13.47
2018-05-14T04:33:53.952Z,13.44
2018-05-14T04:36:27.575Z,13.44
2018-05-14T04:39:01.194Z,13.46
2018-05-14T04:41:34.828Z,13.55
2018-05-14T04:44:08.549Z,13.45
2018-05-14T04:46:42.145Z,13.58
2018-05-14T04:49:15.817Z,13.56
2018-05-14T04:51:49.476Z,13.57
2018-05-14T04:54:23.303Z,13.55
2018-05-14T04:56:57.173Z,13.58
2018-05-14T04:59:30.948Z,13.61
2018-05-14T05:02:04.526Z,13.69
2018-05-14T05:04:38.271Z,13.72
2018-05-14T05:07:11.947Z,13.74
2018-05-14T05:09:45.631Z,13.78
2018-05-14T05:12:19.195Z,13.80
2018-05-14T05:14:52.750Z,13.88
2018-05-14T05:17:26.610Z,13.87
2018-05-14T05:20:00.164Z,13.88
2018-05-14T05:22:33.972Z,13.88
2018-05-14T05:25:07.676Z,13.87
2018-05-14T05:27:41.359Z,13.89
2018-05-14T05:30:15.131Z,14.03
2018-05-14T05:32:48.767Z,14.01
2018-05-14T05:35:22.471Z,13.96
2018-05-14T05:37:56.284Z,14.09
2018-05-14T05:40:29.787Z,14.02
2018-05-14T05:43:03.608Z,14.04
2018-05-14T05:45:37.394Z,14.09
2018-05-14T05:48:11.263Z,14.16
2018-05-14T05:50:44.905Z,14.23
2018-05-14T05:53:18.435Z,14.17
2018-05-14T05:55:52.253Z,14.13
2018-05-14T05:58:25.968Z,14.13
2018-05-14T06:00:59.826Z,14.25
2018-05-14T06:03:33.638Z,14.33
2018-05-14T06:06:07.208Z,14.31
2018-05-14T06:08:40.786Z,14.48
2018-05-14T06:11:14.424Z,14.64
2018-05-14T06:13:47.946Z,14.70
2018-05-14T06:16:21.636Z,14.68
2018-05-14T06:18:55.408Z,14.71
2018-05-14T06:21:29.011Z,14.78
2018-05-14T06:24:02.653Z,14.84
2018-05-14T06:26:36.372Z,15.00
2018-05-14T06:29:10.136Z,14.97
2018-05-14T06:31:43.694Z,14.93
2018-05-14T06:34:17.382Z,15.14
2018-05-14T06:36:51.125Z,15.43
2018-05-14T06:39:25.180Z,15.49
2018-05-14T06:41:58.840Z,15.43
2018-05-14T06:44:32.396Z,15.40
2018-05-14T06:47:06.034Z,15.38
2018-05-14T06:49:39.676Z,15.27
2018-05-14T06:52:13.499Z,15.35
2018-05-14T06:54:47.108Z,15.35
2018-05-14T06:57:20.675Z,15.54
2018-05-14T06:59:54.214Z,15.75
2018-05-14T07:02:27.941Z,15.95
2018-05-14T07:05:01.582Z,16.71
2018-05-14T07:07:35.136Z,16.61
2018-05-14T07:10:08.702Z,17.56
2018-05-14T07:12:42.463Z,18.21
2018-05-14T07:15:16.060Z,18.88
2018-05-14T07:17:49.788Z,18.67
2018-05-14T07:20:23.518Z,18.63
2018-05-14T07:22:57.249Z,19.17
2018-05-14T07:25:30.801Z,19.90
2018-05-14T07:28:04.428Z,20.28
2018-05-14T07:30:38.012Z,20.13
2018-05-14T07:33:11.600Z,20.29
2018-05-14T07:35:45.135Z,20.82
2018-05-14T07:38:18.791Z,20.33
2018-05-14T07:40:52.371Z,20.11
2018-05-14T07:43:26.014Z,20.59
2018-05-14T07:45:59.688Z,20.49
2018-05-14T07:48:33.465Z,19.66
2018-05-14T07:51:07.213Z,20.34
2018-05-14T07:53:40.996Z,21.21
2018-05-14T07:56:14.656Z,21.45
2018-05-14T07:58:48.268Z,21.44
2018-05-14T08:01:22.038Z,20.97
2018-05-14T08:03:55.600Z,20.87
2018-05-14T08:06:29.450Z,22.12
2018-05-14T08:09:03.080Z,22.29
2018-05-14T08:11:36.952Z,23.14
2018-05-14T08:14:10.540Z,23.63
2018-05-14T08:16:44.320Z,23.05
2018-05-14T08:19:17.888Z,25.15
2018-05-14T08:21:51.399Z,24.18
2018-05-14T08:24:24.920Z,23.81
2018-05-14T08:26:58.732Z,24.87
2018-05-14T08:29:32.852Z,24.95
2018-05-14T08:32:06.512Z,25.77
2018-05-14T08:34:40.053Z,25.43
2018-05-14T08:37:13.878Z,25.97
2018-05-14T08:39:47.364Z,26.36
2018-05-14T08:42:20.946Z,25.34
2018-05-14T08:44:54.481Z,25.43
2018-05-14T08:47:28.560Z,25.38
2018-05-14T08:50:02.023Z,25.31
2018-05-14T08:52:35.584Z,27.84
2018-05-14T08:55:09.178Z,26.50
2018-05-14T08:57:42.702Z,28.02
2018-05-14T09:00:16.412Z,29.30
2018-05-14T09:02:49.962Z,26.95
2018-05-14T09:05:23.502Z,26.22
2018-05-14T09:07:57.148Z,26.66
2018-05-14T09:10:30.844Z,28.85
2018-05-14T09:13:04.442Z,27.37
2018-05-14T09:15:38.199Z,27.82
2018-05-14T09:18:11.861Z,27.23
2018-05-14T09:20:45.432Z,28.10
2018-05-14T09:23:19.117Z,27.14
2018-05-14T09:25:52.912Z,27.31
2018-05-14T09:28:26.500Z,25.95
2018-05-14T09:31:00.103Z,27.13
2018-05-14T09:33:33.838Z,26.88
2018-05-14T09:36:07.458Z,27.73
2018-05-14T09:38:41.209Z,29.52
2018-05-14T09:41:14.776Z,29.27
2018-05-14T09:43:48.398Z,29.63
2018-05-14T09:46:22.080Z,27.62
2018-05-14T09:48:55.612Z,26.05
2018-05-14T09:51:29.332Z,28.36
2018-05-14T09:54:02.896Z,29.12
2018-05-14T09:56:36.487Z,26.89
2018-05-14T09:59:10.081Z,28.25
2018-05-14T10:01:43.849Z,28.82
2018-05-14T10:04:17.427Z,28.61
2018-05-14T10:06:51.054Z,27.06
2018-05-14T10:09:24.749Z,27.85
2018-05-14T10:11:58.584Z,28.24
2018-05-14T10:14:32.163Z,29.06
2018-05-14T10:17:05.739Z,29.47
2018-05-14T10:19:39.610Z,29.32
2018-05-14T10:22:13.416Z,28.71
2018-05-14T10:24:46.977Z,29.31
2018-05-14T10:27:20.577Z,29.21
2018-05-14T10:29:54.198Z,29.25
2018-05-14T10:32:28.029Z,28.59
2018-05-14T10:35:01.816Z,27.96
2018-05-14T10:37:35.415Z,29.51
2018-05-14T10:40:09.120Z,29.19
2018-05-14T10:42:42.759Z,28.08
2018-05-14T10:45:16.344Z,28.68
2018-05-14T10:47:49.963Z,29.47
2018-05-14T10:50:23.592Z,28.59
2018-05-14T10:52:57.282Z,29.30
2018-05-14T10:55:30.953Z,30.39
2018-05-14T10:58:04.760Z,30.43
2018-05-14T11:00:38.348Z,29.74
2018-05-14T11:03:11.914Z,29.14
2018-05-14T11:05:45.467Z,28.80
2018-05-14T11:08:19.359Z,31.13
2018-05-14T11:10:53.043Z,31.27
2018-05-14T11:13:26.712Z,30.32
2018-05-14T11:16:00.267Z,30.94
2018-05-14T11:18:33.932Z,29.75
2018-05-14T11:21:07.696Z,29.86
2018-05-14T11:23:41.260Z,31.17
2018-05-14T11:26:15.106Z,30.83
2018-05-14T11:28:48.663Z,30.80
2018-05-14T11:31:22.176Z,30.96
2018-05-14T11:33:55.737Z,30.16
2018-05-14T11:39:41.201Z,30.20
2018-05-14T11:42:14.780Z,29.01
2018-05-14T11:44:48.537Z,27.23
2018-05-14T11:47:22.205Z,26.85
2018-05-14T11:49:55.890Z,26.00
2018-05-14T11:52:29.456Z,25.60
2018-05-14T11:55:03.216Z,25.26
2018-05-14T11:57:36.892Z,25.24
2018-05-14T12:00:10.490Z,24.80
2018-05-14T12:02:44.360Z,24.80
2018-05-14T12:05:17.941Z,24.48
2018-05-14T12:07:51.596Z,24.44
2018-05-14T12:10:25.186Z,24.16
2018-05-14T12:12:58.759Z,24.34
2018-05-14T12:15:32.646Z,24.25
2018-05-14T12:18:06.555Z,23.76
2018-05-14T12:20:40.060Z,23.84
2018-05-14T12:23:13.716Z,24.01
2018-05-14T12:25:47.308Z,24.11
2018-05-14T12:28:20.846Z,24.16
2018-05-14T12:30:54.424Z,24.06
2018-05-14T12:33:28.330Z,24.08
2018-05-14T12:36:02.088Z,24.05
2018-05-14T12:38:35.850Z,24.05
2018-05-14T12:41:09.652Z,23.87
2018-05-14T12:43:43.208Z,23.95
2018-05-14T12:46:16.804Z,23.89
2018-05-14T12:48:50.308Z,23.97
2018-05-14T12:51:23.976Z,24.11
2018-05-14T12:53:57.559Z,24.13
2018-05-14T12:56:31.157Z,23.85
2018-05-14T12:59:04.687Z,23.94
2018-05-14T13:01:38.450Z,24.10
2018-05-14T13:04:12.308Z,24.39
2018-05-14T13:06:45.976Z,24.56
2018-05-14T13:09:19.844Z,24.55
2018-05-14T13:11:53.444Z,24.50
2018-05-14T13:14:26.999Z,24.55
2018-05-14T13:17:00.642Z,24.56
2018-05-14T13:19:34.338Z,24.61
2018-05-14T13:22:07.941Z,24.55
2018-05-14T13:24:42.055Z,24.65
2018-05-14T13:27:15.716Z,24.72
2018-05-14T13:29:49.286Z,24.92
2018-05-14T13:32:22.917Z,24.77
2018-05-14T13:34:56.473Z,24.80
2018-05-14T13:37:30.209Z,24.96
2018-05-14T13:40:03.877Z,25.22
2018-05-14T13:42:37.509Z,25.38
2018-05-14T13:45:11.107Z,25.44
2018-05-14T13:47:44.783Z,25.54
2018-05-14T13:50:18.521Z,25.46
2018-05-14T13:52:52.371Z,25.46
2018-05-14T13:55:25.860Z,25.66
2018-05-14T13:57:59.498Z,25.61
2018-05-14T14:00:33.048Z,25.52
2018-05-14T14:03:06.695Z,25.74
2018-05-14T14:05:40.311Z,26.05
2018-05-14T14:08:13.860Z,26.36
2018-05-14T14:10:47.617Z,26.91
2018-05-14T14:13:21.258Z,26.63
2018-05-14T14:15:55.034Z,26.78
2018-05-14T14:18:28.671Z,26.99
2018-05-14T14:21:02.266Z,27.57
2018-05-14T14:23:36.021Z,28.57
2018-05-14T14:26:09.544Z,28.45
2018-05-14T14:28:43.119Z,29.21
2018-05-14T14:31:16.783Z,29.53
2018-05-14T14:33:50.363Z,29.69
2018-05-14T14:36:24.206Z,30.37
2018-05-14T14:38:57.950Z,30.33
2018-05-14T14:41:31.626Z,30.18
2018-05-14T14:44:05.400Z,30.31
2018-05-14T14:46:39.236Z,29.97
2018-05-14T14:49:12.977Z,30.89
2018-05-14T14:51:46.531Z,31.12
2018-05-14T14:54:20.151Z,30.31
2018-05-14T14:56:53.734Z,30.80
2018-05-14T14:59:27.304Z,30.30
2018-05-14T15:02:01.098Z,30.28
2018-05-14T15:04:34.812Z,30.24
2018-05-14T15:07:08.412Z,29.85
2018-05-14T15:09:42.127Z,30.17
2018-05-14T15:12:15.736Z,30.18
2018-05-14T15:14:49.533Z,30.64
2018-05-14T15:17:23.065Z,30.08
2018-05-14T15:19:56.594Z,30.11
2018-05-14T15:22:30.136Z,29.38
2018-05-14T15:25:03.752Z,29.45
2018-05-14T15:27:37.476Z,29.14
2018-05-14T15:30:11.326Z,28.20
2018-05-14T15:32:44.975Z,27.78
2018-05-14T15:35:18.615Z,27.40
2018-05-14T15:37:52.160Z,27.07
2018-05-14T15:40:25.701Z,26.74
2018-05-14T15:42:59.365Z,26.66
2018-05-14T15:45:33.029Z,26.50
2018-05-14T15:48:06.638Z,26.39
2018-05-14T15:50:40.396Z,26.25
2018-05-14T15:53:14.008Z,26.00
2018-05-14T15:55:47.623Z,25.80
2018-05-14T15:58:21.375Z,25.77
2018-05-14T16:00:55.148Z,25.76
2018-05-14T16:03:28.928Z,25.56
2018-05-14T16:06:02.504Z,25.49
2018-05-14T16:08:36.132Z,25.45
2018-05-14T16:11:09.968Z,25.30
2018-05-14T16:13:43.767Z,25.19
2018-05-14T16:16:17.392Z,25.17
2018-05-14T16:18:50.982Z,25.06
2018-05-14T16:21:24.968Z,25.06
2018-05-14T16:23:58.552Z,25.09
2018-05-14T16:26:32.273Z,25.08
2018-05-14T16:29:05.804Z,24.99
2018-05-14T16:31:39.531Z,24.88
2018-05-14T16:34:13.252Z,24.92
2018-05-14T16:36:47.064Z,24.88
2018-05-14T16:39:20.627Z,24.95
2018-05-14T16:41:54.324Z,24.88
2018-05-14T16:44:27.934Z,24.80
2018-05-14T16:47:01.751Z,24.72
2018-05-14T16:49:35.300Z,24.67
2018-05-14T16:52:09.037Z,24.70
2018-05-14T16:54:42.719Z,24.59
2018-05-14T16:57:16.290Z,24.59
2018-05-14T16:59:49.868Z,24.59
2018-05-14T17:02:23.604Z,24.66
2018-05-14T17:04:57.147Z,24.52
2018-05-14T17:07:30.804Z,24.48
2018-05-14T17:10:04.330Z,24.44
2018-05-14T17:12:38.088Z,24.40
2018-05-14T17:15:11.841Z,24.44
2018-05-14T17:17:45.385Z,24.43
2018-05-14T17:20:18.959Z,24.34
2018-05-14T17:22:52.736Z,24.40
2018-05-14T17:25:27.299Z,24.38
2018-05-14T17:28:00.966Z,24.37
2018-05-14T17:30:34.699Z,24.30
2018-05-14T17:33:08.340Z,24.28
2018-05-14T17:35:42.019Z,24.21
2018-05-14T17:38:15.607Z,24.22
2018-05-14T17:40:49.408Z,24.12
2018-05-14T17:43:23.032Z,24.11
2018-05-14T17:45:56.817Z,24.06
2018-05-14T17:48:30.524Z,23.96
2018-05-14T17:51:04.304Z,23.95
2018-05-14T17:53:37.887Z,23.94
2018-05-14T17:56:11.473Z,23.86
2018-05-14T17:58:45.136Z,23.84
2018-05-14T18:01:18.895Z,23.75
2018-05-14T18:03:52.431Z,23.68
2018-05-14T18:06:26.236Z,23.69
2018-05-14T18:08:59.727Z,23.65
2018-05-14T18:11:33.519Z,23.63
2018-05-14T18:14:07.120Z,23.52
2018-05-14T18:16:40.875Z,23.43
2018-05-14T18:19:14.485Z,23.41
2018-05-14T18:21:48.000Z,23.42
2018-05-14T18:24:21.568Z,23.35
2018-05-14T18:26:55.128Z,23.29
2018-05-14T18:29:30.677Z,23.21
2018-05-14T18:32:05.303Z,23.15
2018-05-14T18:34:39.892Z,23.08
2018-05-14T18:37:13.680Z,23.06
2018-05-14T18:39:47.341Z,22.98
2018-05-14T18:42:20.911Z,22.97
2018-05-14T18:44:54.507Z,22.93
2018-05-14T18:47:28.211Z,22.87
2018-05-14T18:50:01.829Z,22.81
2018-05-14T18:52:35.533Z,22.71
2018-05-14T18:55:09.106Z,22.61
2018-05-14T18:57:42.617Z,22.52
2018-05-14T19:00:16.388Z,22.38
2018-05-14T19:02:50.048Z,22.29
2018-05-14T19:05:23.707Z,22.20
2018-05-14T19:07:57.368Z,22.08
2018-05-14T19:10:36.931Z,22.08
2018-05-14T19:13:10.667Z,21.92
2018-05-14T19:15:50.082Z,21.87
2018-05-14T19:18:23.766Z,21.86
2018-05-14T19:20:57.400Z,21.84
2018-05-14T19:23:36.740Z,21.69
2018-05-14T19:26:10.403Z,21.67
2018-05-14T19:28:49.811Z,21.62
2018-05-14T19:31:23.498Z,21.55
2018-05-14T19:34:02.994Z,21.48
2018-05-14T19:36:36.719Z,21.42
2018-05-14T19:39:10.277Z,21.37
2018-05-14T19:41:43.832Z,21.35
2018-05-14T19:44:17.594Z,21.34
2018-05-14T19:46:51.436Z,21.30
2018-05-14T19:49:25.178Z,21.38
2018-05-14T19:51:58.904Z,21.42
2018-05-14T19:54:32.663Z,21.33
2018-05-14T19:57:06.277Z,21.24
2018-05-14T19:59:39.960Z,21.19
2018-05-14T20:02:13.593Z,21.11
2018-05-14T20:04:47.330Z,21.04
2018-05-14T20:07:20.912Z,21.02
2018-05-14T20:09:54.659Z,21.05
2018-05-14T20:12:28.483Z,21.01
2018-05-14T20:15:02.047Z,21.03
2018-05-14T20:17:35.552Z,20.90
2018-05-14T20:20:09.316Z,20.86
2018-05-14T20:22:43.057Z,20.92
2018-05-14T20:25:16.853Z,20.88
2018-05-14T20:27:50.518Z,20.83
2018-05-14T20:30:24.344Z,20.73
2018-05-14T20:32:57.960Z,20.79
2018-05-14T20:35:31.803Z,20.69
2018-05-14T20:38:05.375Z,20.60
2018-05-14T20:40:39.233Z,20.52
2018-05-14T20:43:12.797Z,20.43
2018-05-14T20:45:46.528Z,20.38
2018-05-14T20:48:20.311Z,20.42
2018-05-14T20:50:54.075Z,20.26
2018-05-14T20:53:27.652Z,20.22
2018-05-14T20:56:01.207Z,20.26
2018-05-14T20:58:35.008Z,20.12
2018-05-14T21:01:08.598Z,20.10
2018-05-14T21:03:42.198Z,20.13
2018-05-14T21:06:15.714Z,19.99
2018-05-14T21:08:49.473Z,19.88
2018-05-14T21:11:23.183Z,19.77
2018-05-14T21:13:56.884Z,19.67
2018-05-14T21:16:30.477Z,19.60
2018-05-14T21:19:04.075Z,19.58
2018-05-14T21:21:37.732Z,19.56
2018-05-14T21:24:11.324Z,19.51
2018-05-14T21:26:45.069Z,19.48
2018-05-14T21:29:18.747Z,19.42
2018-05-14T21:31:52.280Z,19.47
2018-05-14T21:34:25.947Z,19.46
2018-05-14T21:36:59.527Z,19.38
2018-05-14T21:39:33.300Z,19.33
2018-05-14T21:42:07.036Z,19.30
2018-05-14T21:44:40.563Z,19.30
2018-05-14T21:47:14.127Z,19.33
2018-05-14T21:49:47.907Z,19.26
2018-05-14T21:52:21.583Z,19.26
2018-05-14T21:54:55.298Z,19.14
2018-05-14T21:57:28.878Z,19.14
2018-05-14T22:00:02.657Z,19.05
2018-05-14T22:02:36.448Z,19.00
2018-05-14T22:05:10.030Z,18.97
2018-05-14T22:07:43.528Z,18.93
2018-05-14T22:10:17.221Z,18.84
2018-05-14T22:12:50.917Z,18.82
2018-05-14T22:15:24.510Z,18.80
2018-05-14T22:17:58.176Z,18.76
2018-05-14T22:20:31.907Z,18.71
2018-05-14T22:23:05.448Z,18.67
2018-05-14T22:25:39.104Z,18.66
2018-05-14T22:28:12.783Z,18.63
2018-05-14T22:30:46.300Z,18.57
2018-05-14T22:33:19.907Z,18.50
2018-05-14T22:35:53.536Z,18.39
2018-05-14T22:38:27.122Z,18.32
2018-05-14T22:41:00.636Z,18.46
2018-05-14T22:43:34.197Z,18.28
2018-05-14T22:46:07.848Z,18.24
2018-05-14T22:48:41.467Z,18.24
2018-05-14T22:51:15.199Z,18.24
2018-05-14T22:53:48.868Z,18.07
2018-05-14T22:56:39.275Z,17.98
2018-05-14T22:59:13.032Z,17.94
2018-05-14T23:01:46.809Z,17.90
2018-05-14T23:04:20.416Z,17.88
2018-05-14T23:06:54.267Z,17.91
2018-05-14T23:09:28.042Z,17.92
2018-05-14T23:12:01.825Z,17.85
2018-05-14T23:14:35.408Z,17.81
2018-05-14T23:17:09.078Z,17.61
2018-05-14T23:19:42.748Z,17.57
2018-05-14T23:22:16.328Z,17.52
2018-05-14T23:24:49.949Z,17.50
2018-05-14T23:27:23.576Z,17.32
2018-05-14T23:29:57.397Z,17.32
2018-05-14T23:32:31.118Z,17.32
2018-05-14T23:35:04.809Z,17.30
2018-05-14T23:37:38.521Z,17.14
2018-05-14T23:40:12.055Z,17.01
2018-05-14T23:42:46.056Z,17.07
2018-05-14T23:45:19.707Z,17.11
2018-05-14T23:47:53.473Z,17.10
2018-05-14T23:50:27.120Z,17.01
2018-05-14T23:53:00.699Z,16.87
2018-05-14T23:55:34.337Z,16.71
2018-05-14T23:58:07.958Z,16.61
